Time;durP1;ratioP1;P1;durP2;ratioP2;P2;SDS_P1;SDS_P2;PMS_P1;PMS_P2;Temp;Humidity;BMP_temperature;BMP_pressure;BME280_temperature;BME280_humidity;BME280_pressure;Samples;Min_cycle;Max_cycle;Signal;HPM_P1;HPM_P2
2021/12/13 00:00:07;;;;;;;;;;;1.80;99.90;;;;;;5033571;28;19917;-85
2021/12/13 00:02:36;;;;;;;;;;;1.80;99.90;;;;;;5031159;28;19917;-86
2021/12/13 00:05:01;;;;;;;;;;;1.80;99.90;;;;;;5031881;28;19909;-87
2021/12/13 00:07:29;;;;;;;;;;;1.90;99.90;;;;;;5035184;28;19920;-86
2021/12/13 00:09:57;;;;;;;;;;;1.80;99.90;;;;;;5027605;28;20068;-86
2021/12/13 00:12:34;;;;;;;;;;;1.80;99.90;;;;;;5034726;28;19983;-85
2021/12/13 00:15:01;;;;;;;;;;;1.80;99.90;;;;;;5031620;28;19909;-86
2021/12/13 00:17:36;;;;;;;;;;;1.80;99.90;;;;;;5035231;28;19909;-84
2021/12/13 00:20:12;;;;;;;;;;;1.80;99.90;;;;;;5009636;28;19909;-85
2021/12/13 00:22:50;;;;;;;;;;;1.80;99.90;;;;;;5030823;28;20305;-84
2021/12/13 00:25:21;;;;;;;;;;;1.80;99.90;;;;;;5035346;28;19909;-84
2021/12/13 00:27:49;;;;;;;;;;;1.90;99.90;;;;;;5033054;28;19929;-82
2021/12/13 00:30:14;;;;;;;;;;;1.90;99.90;;;;;;5038598;28;19947;-82
2021/12/13 00:32:59;;;;;;;;;;;1.90;99.90;;;;;;5040320;28;19909;-81
2021/12/13 00:35:33;;;;;;;;;;;1.90;99.90;;;;;;5034262;28;19909;-83
2021/12/13 00:38:01;;;;;;;;;;;1.90;99.90;;;;;;5017649;28;19920;-83
2021/12/13 00:40:33;;;;;;;;;;;1.90;99.90;;;;;;5022725;28;19970;-81
2021/12/13 00:43:02;;;;;;;;;;;1.80;99.90;;;;;;5035324;28;20011;-83
2021/12/13 00:45:29;;;;;;;;;;;1.90;99.90;;;;;;5012885;28;19913;-80
2021/12/13 00:47:54;;;;;;;;;;;1.90;99.90;;;;;;5034584;28;19952;-83
2021/12/13 00:50:23;;;;;;;;;;;1.90;99.90;;;;;;5034892;28;19998;-84
2021/12/13 00:52:50;;;;;;;;;;;1.80;99.90;;;;;;5034520;28;19913;-83
2021/12/13 00:55:17;;;;;;;;;;;1.80;99.90;;;;;;5012393;28;19917;-82
2021/12/13 00:57:44;;;;;;;;;;;1.80;99.90;;;;;;5034298;28;19971;-85
2021/12/13 01:00:15;;;;;;;;;;;1.80;99.90;;;;;;5016783;28;19909;-84
2021/12/13 01:02:40;;;;;;;;;;;1.80;99.90;;;;;;5016114;28;19952;-82
2021/12/13 01:05:35;;;;;;;;;;;1.90;99.90;;;;;;5034051;28;19944;-84
2021/12/13 01:08:00;;;;;;;;;;;1.80;99.90;;;;;;5015388;28;19920;-84
2021/12/13 01:10:44;;;;;;;;;;;1.80;99.90;;;;;;5034589;28;20284;-81
2021/12/13 01:13:13;;;;;;;;;;;1.80;99.90;;;;;;5030202;28;20361;-83
2021/12/13 01:15:48;;;;;;;;;;;1.90;99.90;;;;;;5030047;28;19932;-84
2021/12/13 01:21:37;;;;;;;;;;;1.90;99.90;;;;;;4992891;28;19955;-85
2021/12/13 01:24:08;;;;;;;;;;;1.90;99.90;;;;;;5030268;28;19959;-85
2021/12/13 01:26:39;;;;;;;;;;;1.90;99.90;;;;;;5029699;28;19932;-85
2021/12/13 01:29:16;;;;;;;;;;;1.90;99.90;;;;;;5030160;28;20372;-83
2021/12/13 01:31:56;;;;;;;;;;;1.90;99.90;;;;;;5033412;28;19913;-84
2021/12/13 01:34:23;;;;;;;;;;;1.90;99.90;;;;;;5033405;28;19956;-81
2021/12/13 01:37:00;;;;;;;;;;;1.90;99.90;;;;;;5032166;28;19916;-85
2021/12/13 01:39:27;;;;;;;;;;;1.90;99.90;;;;;;5015908;28;19928;-83
2021/12/13 01:41:59;;;;;;;;;;;1.90;99.90;;;;;;5032979;28;20020;-85
2021/12/13 01:44:26;;;;;;;;;;;1.90;99.90;;;;;;5033184;28;19913;-85
2021/12/13 01:46:54;;;;;;;;;;;1.90;99.90;;;;;;5032351;28;20365;-84
2021/12/13 01:49:20;;;;;;;;;;;1.90;99.90;;;;;;5033327;28;19928;-83
2021/12/13 01:51:46;;;;;;;;;;;1.90;99.90;;;;;;5033302;28;19932;-83
2021/12/13 01:54:15;;;;;;;;;;;1.90;99.90;;;;;;5011307;28;19913;-82
2021/12/13 01:56:55;;;;;;;;;;;2.00;99.90;;;;;;5031985;28;19919;-83
2021/12/13 02:02:11;;;;;;;;;;;2.00;99.90;;;;;;5032917;28;19920;-83
2021/12/13 02:04:37;;;;;;;;;;;1.90;99.90;;;;;;5028923;28;19905;-81
2021/12/13 02:07:03;;;;;;;;;;;1.90;99.90;;;;;;5024496;28;20401;-81
2021/12/13 02:09:31;;;;;;;;;;;1.90;99.90;;;;;;5015502;28;19987;-81
2021/12/13 02:11:58;;;;;;;;;;;1.80;99.90;;;;;;5025338;28;20392;-83
2021/12/13 02:14:27;;;;;;;;;;;1.90;99.90;;;;;;5026629;28;20394;-83
2021/12/13 02:17:10;;;;;;;;;;;1.90;99.90;;;;;;5031687;28;20436;-84
2021/12/13 02:19:42;;;;;;;;;;;1.90;99.90;;;;;;5027664;28;19916;-82
2021/12/13 02:22:26;;;;;;;;;;;1.90;99.90;;;;;;5021841;28;19955;-84
2021/12/13 02:24:53;;;;;;;;;;;1.90;99.90;;;;;;5014192;28;19912;-83
2021/12/13 02:27:21;;;;;;;;;;;1.90;99.90;;;;;;5033209;28;19913;-83
2021/12/13 02:29:47;;;;;;;;;;;1.80;99.90;;;;;;5032991;28;20365;-84
2021/12/13 02:32:13;;;;;;;;;;;1.90;99.90;;;;;;5014056;28;20283;-84
2021/12/13 02:34:41;;;;;;;;;;;1.90;99.90;;;;;;5010848;28;19913;-83
2021/12/13 02:37:08;;;;;;;;;;;2.00;99.90;;;;;;5032740;28;19909;-84
2021/12/13 02:39:37;;;;;;;;;;;2.00;99.90;;;;;;5011582;28;19933;-83
2021/12/13 02:42:05;;;;;;;;;;;2.00;99.90;;;;;;5009166;28;20340;-84
2021/12/13 02:44:37;;;;;;;;;;;1.90;99.90;;;;;;5008762;28;20024;-83
2021/12/13 02:47:04;;;;;;;;;;;1.90;99.90;;;;;;5008852;28;19968;-84
2021/12/13 02:49:31;;;;;;;;;;;1.90;99.90;;;;;;5029940;28;19913;-79
2021/12/13 02:51:58;;;;;;;;;;;1.90;99.90;;;;;;5029611;28;19914;-80
2021/12/13 02:54:27;;;;;;;;;;;2.00;99.90;;;;;;5012185;28;19924;-82
2021/12/13 02:56:59;;;;;;;;;;;2.00;99.90;;;;;;5012807;28;19909;-83
2021/12/13 02:59:26;;;;;;;;;;;2.00;99.90;;;;;;5013001;28;19909;-83
2021/12/13 03:01:57;;;;;;;;;;;2.00;99.90;;;;;;5007513;28;20380;-83
2021/12/13 03:04:24;;;;;;;;;;;2.00;99.90;;;;;;5012014;28;20365;-83
2021/12/13 03:06:55;;;;;;;;;;;2.00;99.90;;;;;;5012616;28;19916;-83
2021/12/13 03:09:24;;;;;;;;;;;1.90;99.90;;;;;;5011220;28;19920;-84
2021/12/13 03:11:50;;;;;;;;;;;1.90;99.90;;;;;;5011657;28;19956;-84
2021/12/13 03:14:18;;;;;;;;;;;1.90;99.90;;;;;;5012565;28;19958;-84
2021/12/13 03:16:58;;;;;;;;;;;1.90;99.90;;;;;;5027737;28;20376;-83
2021/12/13 03:19:42;;;;;;;;;;;1.90;99.90;;;;;;5011344;28;20377;-82
2021/12/13 03:22:26;;;;;;;;;;;1.90;99.90;;;;;;5005300;28;19910;-85
2021/12/13 03:24:58;;;;;;;;;;;1.90;99.90;;;;;;5012377;28;19913;-82
2021/12/13 03:27:41;;;;;;;;;;;1.90;99.90;;;;;;5011179;28;20387;-83
2021/12/13 03:30:09;;;;;;;;;;;1.90;99.90;;;;;;5009137;28;19964;-83
2021/12/13 03:32:38;;;;;;;;;;;2.00;99.90;;;;;;5003120;28;20016;-83
2021/12/13 03:35:06;;;;;;;;;;;1.90;99.90;;;;;;5007155;28;20365;-82
2021/12/13 03:37:32;;;;;;;;;;;2.00;99.90;;;;;;5012278;28;19913;-81
2021/12/13 03:40:00;;;;;;;;;;;1.90;99.90;;;;;;5021646;28;20023;-84
2021/12/13 03:42:28;;;;;;;;;;;1.90;99.90;;;;;;5009990;28;19909;-85
2021/12/13 03:44:56;;;;;;;;;;;1.90;99.90;;;;;;5030570;28;19924;-83
2021/12/13 03:47:35;;;;;;;;;;;1.90;99.90;;;;;;5032082;28;20004;-83
2021/12/13 03:50:03;;;;;;;;;;;1.80;99.90;;;;;;5030337;28;19913;-84
2021/12/13 03:52:30;;;;;;;;;;;1.80;99.90;;;;;;5014633;28;19928;-84
2021/12/13 03:54:59;;;;;;;;;;;1.80;99.90;;;;;;5014250;28;19909;-84
2021/12/13 03:57:25;;;;;;;;;;;1.90;99.90;;;;;;5032067;28;19924;-81
2021/12/13 03:59:51;;;;;;;;;;;1.90;99.90;;;;;;4997153;28;19940;-83
2021/12/13 04:02:18;;;;;;;;;;;1.90;99.90;;;;;;5021989;28;19913;-83
2021/12/13 04:04:54;;;;;;;;;;;1.90;99.90;;;;;;5031735;28;19924;-82
2021/12/13 04:07:26;;;;;;;;;;;1.90;99.90;;;;;;5024495;28;19923;-82
2021/12/13 04:09:55;;;;;;;;;;;2.00;99.90;;;;;;5032547;28;19917;-83
2021/12/13 04:12:32;;;;;;;;;;;2.00;99.90;;;;;;5035764;28;19955;-81
2021/12/13 04:15:02;;;;;;;;;;;2.00;99.90;;;;;;5035539;28;20209;-83
2021/12/13 04:17:43;;;;;;;;;;;1.90;99.90;;;;;;5018020;28;19916;-85
2021/12/13 04:20:11;;;;;;;;;;;1.90;99.90;;;;;;5034292;28;20338;-84
2021/12/13 04:22:39;;;;;;;;;;;1.90;99.90;;;;;;5035214;28;19909;-83
2021/12/13 04:25:18;;;;;;;;;;;1.90;99.90;;;;;;5013639;28;19932;-82
2021/12/13 04:27:59;;;;;;;;;;;2.00;99.90;;;;;;5031962;28;19924;-83
2021/12/13 04:30:24;;;;;;;;;;;2.00;99.90;;;;;;5016311;28;19909;-83
2021/12/13 04:32:52;;;;;;;;;;;1.90;99.90;;;;;;5034923;28;19909;-82
2021/12/13 04:35:18;;;;;;;;;;;1.90;99.90;;;;;;5034897;28;19913;-82
2021/12/13 04:37:45;;;;;;;;;;;1.90;99.90;;;;;;5034562;28;20368;-83
2021/12/13 04:40:15;;;;;;;;;;;1.90;99.90;;;;;;5034820;28;19917;-83
2021/12/13 04:42:41;;;;;;;;;;;1.90;99.90;;;;;;5034766;28;19909;-83
2021/12/13 04:45:33;;;;;;;;;;;2.00;99.90;;;;;;5034837;28;19913;-82
2021/12/13 04:48:10;;;;;;;;;;;2.00;99.90;;;;;;5027565;28;19964;-82
2021/12/13 04:50:53;;;;;;;;;;;2.00;99.90;;;;;;5008903;28;20000;-83
2021/12/13 04:53:38;;;;;;;;;;;2.10;99.90;;;;;;5024933;28;20011;-82
2021/12/13 04:56:06;;;;;;;;;;;2.10;99.90;;;;;;5034323;28;19924;-82
2021/12/13 04:58:32;;;;;;;;;;;2.10;99.90;;;;;;5033269;28;20281;-82
2021/12/13 05:01:00;;;;;;;;;;;2.10;99.90;;;;;;5026321;28;20059;-81
2021/12/13 05:03:28;;;;;;;;;;;2.10;99.90;;;;;;5015206;28;19913;-82
2021/12/13 05:05:54;;;;;;;;;;;2.10;99.90;;;;;;4994718;28;19924;-80
2021/12/13 05:08:20;;;;;;;;;;;2.10;99.90;;;;;;5031072;28;19960;-82
2021/12/13 05:10:48;;;;;;;;;;;2.10;99.90;;;;;;5011812;28;19979;-82
2021/12/13 05:13:16;;;;;;;;;;;2.10;99.90;;;;;;5033159;28;19913;-83
2021/12/13 05:15:44;;;;;;;;;;;2.10;99.90;;;;;;5034219;28;19927;-85
2021/12/13 05:18:18;;;;;;;;;;;2.10;99.90;;;;;;4998686;28;19917;-82
2021/12/13 05:20:44;;;;;;;;;;;2.10;99.90;;;;;;5026763;28;19912;-85
2021/12/13 05:23:18;;;;;;;;;;;2.10;99.90;;;;;;5016727;28;20372;-84
2021/12/13 05:25:46;;;;;;;;;;;2.20;99.90;;;;;;5033829;28;19996;-81
2021/12/13 05:28:14;;;;;;;;;;;2.10;99.90;;;;;;5034312;28;19921;-83
2021/12/13 05:30:51;;;;;;;;;;;2.10;99.90;;;;;;5023109;28;19967;-83
2021/12/13 05:33:18;;;;;;;;;;;2.10;99.90;;;;;;5033106;28;19913;-84
2021/12/13 05:35:49;;;;;;;;;;;2.10;99.90;;;;;;5029392;28;19963;-82
2021/12/13 05:38:23;;;;;;;;;;;2.10;99.90;;;;;;5033136;28;19917;-83
2021/12/13 05:40:49;;;;;;;;;;;2.10;99.90;;;;;;5033306;28;19921;-83
2021/12/13 05:43:35;;;;;;;;;;;2.10;99.90;;;;;;5032476;28;19909;-84
2021/12/13 05:46:05;;;;;;;;;;;2.10;99.90;;;;;;5014230;28;19932;-83
2021/12/13 05:48:34;;;;;;;;;;;2.10;99.90;;;;;;5020709;28;19982;-85
2021/12/13 05:51:01;;;;;;;;;;;2.10;99.90;;;;;;5019176;28;20373;-81
2021/12/13 05:53:29;;;;;;;;;;;2.10;99.90;;;;;;5018976;28;20368;-83
2021/12/13 05:55:57;;;;;;;;;;;2.10;99.90;;;;;;5011352;28;19913;-82
2021/12/13 05:58:29;;;;;;;;;;;2.10;99.90;;;;;;5031519;28;19917;-82
2021/12/13 06:00:56;;;;;;;;;;;2.10;99.90;;;;;;5014545;28;20059;-83
2021/12/13 06:03:30;;;;;;;;;;;2.10;99.90;;;;;;5032745;28;19913;-81
2021/12/13 06:06:03;;;;;;;;;;;2.10;99.90;;;;;;5030352;28;19909;-83
2021/12/13 06:08:34;;;;;;;;;;;2.10;99.90;;;;;;5032517;28;19913;-85
2021/12/13 06:11:02;;;;;;;;;;;2.10;99.90;;;;;;5030701;28;19909;-87
2021/12/13 06:13:39;;;;;;;;;;;2.10;99.90;;;;;;5019480;28;19998;-87
2021/12/13 06:16:05;;;;;;;;;;;2.10;99.90;;;;;;5047547;28;19901;-85
2021/12/13 06:18:36;;;;;;;;;;;2.10;99.90;;;;;;5036476;28;19924;-88
2021/12/13 06:21:02;;;;;;;;;;;2.10;99.90;;;;;;5033329;28;19927;-89
2021/12/13 06:23:32;;;;;;;;;;;2.10;99.90;;;;;;5017406;28;19995;-87
2021/12/13 06:26:00;;;;;;;;;;;2.10;99.90;;;;;;5029299;28;19914;-87
2021/12/13 06:28:28;;;;;;;;;;;2.10;99.90;;;;;;5032615;28;20011;-87
2021/12/13 06:31:02;;;;;;;;;;;2.10;99.90;;;;;;5032497;28;19921;-89
2021/12/13 06:33:28;;;;;;;;;;;2.10;99.90;;;;;;5028184;28;20451;-87
2021/12/13 06:36:01;;;;;;;;;;;2.00;99.90;;;;;;4999136;28;19951;-88
2021/12/13 06:38:29;;;;;;;;;;;2.10;99.90;;;;;;5015248;28;20391;-89
2021/12/13 06:41:06;;;;;;;;;;;2.10;99.90;;;;;;5015134;28;19924;-88
2021/12/13 06:43:41;;;;;;;;;;;2.10;99.90;;;;;;5026621;28;19921;-88
2021/12/13 06:46:11;;;;;;;;;;;2.00;99.90;;;;;;5028484;28;19932;-89
2021/12/13 06:48:44;;;;;;;;;;;2.10;99.90;;;;;;5027308;28;19913;-86
2021/12/13 06:51:12;;;;;;;;;;;2.10;99.90;;;;;;4995101;28;20011;-87
2021/12/13 06:53:38;;;;;;;;;;;2.00;99.90;;;;;;5006564;28;20001;-88
2021/12/13 06:56:23;;;;;;;;;;;2.10;99.90;;;;;;5023093;28;20392;-87
2021/12/13 06:58:52;;;;;;;;;;;2.10;99.90;;;;;;5030070;28;19909;-88
2021/12/13 07:01:18;;;;;;;;;;;2.10;99.90;;;;;;5031898;28;19978;-88
2021/12/13 07:03:51;;;;;;;;;;;2.10;99.90;;;;;;5027935;28;19909;-87
2021/12/13 07:06:17;;;;;;;;;;;2.20;99.90;;;;;;5032508;28;19909;-83
2021/12/13 07:08:43;;;;;;;;;;;2.20;99.90;;;;;;5032270;28;20368;-83
2021/12/13 07:11:13;;;;;;;;;;;2.20;99.90;;;;;;5033054;28;19913;-82
2021/12/13 07:13:42;;;;;;;;;;;2.20;99.90;;;;;;5015033;28;20055;-80
2021/12/13 07:16:15;;;;;;;;;;;2.30;99.90;;;;;;5028044;28;20379;-81
2021/12/13 07:18:47;;;;;;;;;;;2.20;99.90;;;;;;5030459;28;19915;-84
2021/12/13 07:21:17;;;;;;;;;;;2.30;99.90;;;;;;5015103;28;19913;-80
2021/12/13 07:23:55;;;;;;;;;;;2.30;99.90;;;;;;5026766;28;19936;-81
2021/12/13 07:26:33;;;;;;;;;;;2.40;99.90;;;;;;5032140;28;20003;-82
2021/12/13 07:28:59;;;;;;;;;;;2.30;99.90;;;;;;5030769;28;19919;-82
2021/12/13 07:31:25;;;;;;;;;;;2.30;99.90;;;;;;5023472;28;19913;-80
2021/12/13 07:33:51;;;;;;;;;;;2.40;99.90;;;;;;5009972;28;19909;-81
2021/12/13 07:36:25;;;;;;;;;;;2.40;99.90;;;;;;5014620;28;20443;-86
2021/12/13 07:38:53;;;;;;;;;;;2.40;99.90;;;;;;5030911;28;20368;-83
2021/12/13 07:41:19;;;;;;;;;;;2.60;99.90;;;;;;5028360;28;19956;-83
2021/12/13 07:43:46;;;;;;;;;;;2.60;99.90;;;;;;5032847;28;19971;-82
2021/12/13 07:46:12;;;;;;;;;;;2.60;99.90;;;;;;5014443;28;19920;-87
2021/12/13 07:48:41;;;;;;;;;;;2.60;99.90;;;;;;5030464;28;19912;-86
2021/12/13 07:51:16;;;;;;;;;;;2.50;99.90;;;;;;5034664;28;19931;-88
2021/12/13 07:53:48;;;;;;;;;;;2.50;99.90;;;;;;5027622;28;19909;-87
2021/12/13 07:56:20;;;;;;;;;;;2.50;99.90;;;;;;5032567;28;20085;-88
2021/12/13 07:58:47;;;;;;;;;;;2.70;99.90;;;;;;5017461;28;19916;-86
2021/12/13 08:01:17;;;;;;;;;;;2.80;99.90;;;;;;5035362;28;19946;-86
2021/12/13 08:04:03;;;;;;;;;;;3.00;99.90;;;;;;5025430;28;20281;-85
2021/12/13 08:06:33;;;;;;;;;;;3.30;99.90;;;;;;5019450;28;19916;-86
2021/12/13 08:09:02;;;;;;;;;;;3.30;99.90;;;;;;5012692;28;19919;-87
2021/12/13 08:11:33;;;;;;;;;;;3.10;99.90;;;;;;5034347;28;20364;-85
2021/12/13 08:13:59;;;;;;;;;;;3.00;99.90;;;;;;5017543;28;19948;-85
2021/12/13 08:16:29;;;;;;;;;;;3.30;99.90;;;;;;5010492;28;19998;-85
2021/12/13 08:19:04;;;;;;;;;;;3.20;99.90;;;;;;5023624;28;19913;-86
2021/12/13 08:21:29;;;;;;;;;;;3.30;99.90;;;;;;5039530;28;20368;-88
2021/12/13 08:24:00;;;;;;;;;;;3.50;99.90;;;;;;5015492;28;19913;-86
2021/12/13 08:26:26;;;;;;;;;;;3.50;99.90;;;;;;5017901;28;19913;-88
2021/12/13 08:28:54;;;;;;;;;;;3.70;99.90;;;;;;5035082;28;19924;-87
2021/12/13 08:31:21;;;;;;;;;;;3.60;99.90;;;;;;5026093;28;19913;-88
2021/12/13 08:33:50;;;;;;;;;;;3.60;99.90;;;;;;5034935;28;20387;-86
2021/12/13 08:36:17;;;;;;;;;;;3.70;99.90;;;;;;5013640;28;19912;-87
2021/12/13 08:39:00;;;;;;;;;;;3.80;99.90;;;;;;5013573;28;19913;-87
2021/12/13 08:41:29;;;;;;;;;;;4.20;99.90;;;;;;5028718;28;19917;-88
2021/12/13 08:44:24;;;;;;;;;;;4.60;99.90;;;;;;5016729;28;19924;-84
2021/12/13 08:46:55;;;;;;;;;;;4.70;99.90;;;;;;5021732;28;19913;-84
2021/12/13 08:49:20;;;;;;;;;;;4.50;99.90;;;;;;5016880;28;20296;-86
2021/12/13 08:51:55;;;;;;;;;;;4.30;99.90;;;;;;5033156;28;19909;-86
2021/12/13 08:54:32;;;;;;;;;;;4.20;99.90;;;;;;5030383;28;19949;-85
2021/12/13 08:56:57;;;;;;;;;;;4.40;99.90;;;;;;5016816;28;20008;-85
2021/12/13 08:59:25;;;;;;;;;;;4.30;99.90;;;;;;5034512;28;20042;-84
2021/12/13 09:01:53;;;;;;;;;;;4.30;99.90;;;;;;5016354;28;20300;-84
2021/12/13 09:04:21;;;;;;;;;;;4.30;99.90;;;;;;5030053;28;20016;-86
2021/12/13 09:06:49;;;;;;;;;;;4.80;99.90;;;;;;5034477;28;19916;-84
2021/12/13 09:09:16;;;;;;;;;;;4.60;99.90;;;;;;5016676;28;19939;-84
2021/12/13 09:11:56;;;;;;;;;;;4.60;99.90;;;;;;5032863;28;19924;-87
2021/12/13 09:14:25;;;;;;;;;;;4.60;99.90;;;;;;5030844;28;19909;-85
2021/12/13 09:17:10;;;;;;;;;;;4.50;99.90;;;;;;5025928;28;19913;-86
2021/12/13 09:19:44;;;;;;;;;;;4.40;99.90;;;;;;5030765;28;19909;-87
2021/12/13 09:22:10;;;;;;;;;;;4.30;99.90;;;;;;5012210;28;19916;-87
2021/12/13 09:24:47;;;;;;;;;;;4.50;99.90;;;;;;5033789;28;19909;-83
2021/12/13 09:27:16;;;;;;;;;;;4.60;99.90;;;;;;5030780;28;19908;-83
2021/12/13 09:29:53;;;;;;;;;;;4.80;99.90;;;;;;5031130;28;20380;-82
2021/12/13 09:32:19;;;;;;;;;;;4.90;99.90;;;;;;5023416;28;20032;-82
2021/12/13 09:34:45;;;;;;;;;;;5.00;99.90;;;;;;5006722;28;20420;-82
2021/12/13 09:37:12;;;;;;;;;;;5.20;99.90;;;;;;5032130;28;20004;-81
2021/12/13 09:39:37;;;;;;;;;;;5.40;99.90;;;;;;5032050;28;19921;-82
2021/12/13 09:42:14;;;;;;;;;;;5.70;99.90;;;;;;5050985;28;19963;-82
2021/12/13 09:44:43;;;;;;;;;;;5.30;99.90;;;;;;5028292;28;19916;-81
2021/12/13 09:47:11;;;;;;;;;;;5.20;99.90;;;;;;5033855;28;19916;-83
2021/12/13 09:49:45;;;;;;;;;;;5.20;99.90;;;;;;5033633;28;19948;-82
2021/12/13 09:52:17;;;;;;;;;;;5.30;99.90;;;;;;5025332;28;19913;-82
2021/12/13 09:54:56;;;;;;;;;;;5.00;99.90;;;;;;5029503;28;19967;-82
2021/12/13 09:57:25;;;;;;;;;;;5.00;99.90;;;;;;5033941;28;19913;-82
2021/12/13 09:59:52;;;;;;;;;;;5.40;99.90;;;;;;5029642;28;19909;-82
2021/12/13 10:02:32;;;;;;;;;;;5.50;99.90;;;;;;5033206;28;19964;-82
2021/12/13 10:04:58;;;;;;;;;;;5.70;99.90;;;;;;5022074;28;19979;-81
2021/12/13 10:07:28;;;;;;;;;;;5.60;99.90;;;;;;5027862;28;19909;-82
2021/12/13 10:10:14;;;;;;;;;;;5.70;99.90;;;;;;5033213;28;20053;-81
2021/12/13 10:12:48;;;;;;;;;;;6.10;99.90;;;;;;5032715;28;19912;-81
2021/12/13 10:15:18;;;;;;;;;;;5.90;99.90;;;;;;5033133;28;20420;-81
2021/12/13 10:17:46;;;;;;;;;;;6.00;99.90;;;;;;5024711;28;19913;-80
2021/12/13 10:20:23;;;;;;;;;;;6.50;99.90;;;;;;5031052;28;19913;-81
2021/12/13 10:22:49;;;;;;;;;;;6.80;99.90;;;;;;5033999;28;19917;-81
2021/12/13 10:25:17;;;;;;;;;;;6.80;99.90;;;;;;5020885;28;19913;-81
2021/12/13 10:27:43;;;;;;;;;;;6.70;99.90;;;;;;5041738;28;19986;-80
2021/12/13 10:30:13;;;;;;;;;;;6.50;99.90;;;;;;5038687;28;20292;-80
2021/12/13 10:32:39;;;;;;;;;;;6.80;99.90;;;;;;5019012;28;19913;-81
2021/12/13 10:35:12;;;;;;;;;;;6.50;99.90;;;;;;5032931;28;19913;-81
2021/12/13 10:37:39;;;;;;;;;;;6.10;99.90;;;;;;5022342;28;20003;-81
2021/12/13 10:40:25;;;;;;;;;;;5.70;99.90;;;;;;5025032;28;19925;-86
2021/12/13 10:42:53;;;;;;;;;;;6.20;99.90;;;;;;5027537;28;19909;-84
2021/12/13 10:45:23;;;;;;;;;;;6.10;99.90;;;;;;4998438;28;19913;-82
2021/12/13 10:47:50;;;;;;;;;;;6.10;99.90;;;;;;4998985;28;19932;-84
2021/12/13 10:50:22;;;;;;;;;;;6.10;99.90;;;;;;4996920;28;20015;-85
2021/12/13 10:52:53;;;;;;;;;;;6.40;99.90;;;;;;4992363;28;19948;-86
2021/12/13 10:55:28;;;;;;;;;;;6.80;99.90;;;;;;5015120;28;19931;-85
2021/12/13 10:57:53;;;;;;;;;;;6.80;99.90;;;;;;5017324;28;19917;-85
2021/12/13 11:00:31;;;;;;;;;;;6.50;99.90;;;;;;4985197;28;19920;-85
2021/12/13 11:02:59;;;;;;;;;;;5.90;99.90;;;;;;5004620;28;19912;-85
2021/12/13 11:05:28;;;;;;;;;;;6.40;99.90;;;;;;5015062;28;20368;-84
2021/12/13 11:07:57;;;;;;;;;;;6.70;99.90;;;;;;5014938;28;19913;-83
2021/12/13 11:10:25;;;;;;;;;;;6.80;99.90;;;;;;4999030;28;20055;-84
2021/12/13 11:12:53;;;;;;;;;;;7.00;99.90;;;;;;5013294;28;20375;-83
2021/12/13 11:15:21;;;;;;;;;;;7.10;99.90;;;;;;5002383;28;19920;-84
2021/12/13 11:17:47;;;;;;;;;;;7.00;99.90;;;;;;5019916;28;19916;-81
2021/12/13 11:20:16;;;;;;;;;;;6.30;99.90;;;;;;5019239;28;19929;-83
2021/12/13 11:22:46;;;;;;;;;;;6.00;99.90;;;;;;5011838;28;19909;-83
2021/12/13 11:25:32;;;;;;;;;;;5.80;99.90;;;;;;5027888;28;19920;-83
2021/12/13 11:28:00;;;;;;;;;;;5.50;99.90;;;;;;5016959;28;19924;-83
2021/12/13 11:33:10;;;;;;;;;;;5.60;99.90;;;;;;5381407;22;19956;-87
2021/12/13 11:35:56;;;;;;;;;;;5.50;99.90;;;;;;5043800;28;20410;-84
2021/12/13 11:38:40;;;;;;;;;;;5.50;99.90;;;;;;5022863;28;19948;-84
2021/12/13 11:41:18;;;;;;;;;;;5.30;99.90;;;;;;5056155;28;19939;-86
2021/12/13 11:43:49;;;;;;;;;;;5.30;99.90;;;;;;5050737;28;19912;-85
2021/12/13 11:46:34;;;;;;;;;;;5.50;99.90;;;;;;5050801;28;19916;-85
2021/12/13 11:49:17;;;;;;;;;;;5.30;99.90;;;;;;5053966;28;20067;-85
2021/12/13 11:52:02;;;;;;;;;;;5.20;99.90;;;;;;5051896;28;20667;-86
2021/12/13 11:54:43;;;;;;;;;;;5.10;99.90;;;;;;5052682;28;19931;-86
2021/12/13 11:57:08;;;;;;;;;;;5.20;99.90;;;;;;5055948;28;19912;-87
2021/12/13 11:59:46;;;;;;;;;;;5.30;99.90;;;;;;5055676;28;19912;-86
2021/12/13 12:02:35;;;;;;;;;;;5.50;99.90;;;;;;5037155;28;20003;-87
2021/12/13 12:05:16;;;;;;;;;;;5.80;99.90;;;;;;5052483;28;19988;-86
2021/12/13 12:08:00;;;;;;;;;;;6.10;99.90;;;;;;5050739;28;19916;-86
2021/12/13 12:10:25;;;;;;;;;;;5.70;99.90;;;;;;5051949;28;20384;-85
2021/12/13 12:13:09;;;;;;;;;;;5.70;99.90;;;;;;5037529;28;19952;-83
2021/12/13 12:15:37;;;;;;;;;;;5.80;99.90;;;;;;5055579;28;19908;-83
2021/12/13 12:18:04;;;;;;;;;;;6.00;99.90;;;;;;5053068;28;20289;-82
2021/12/13 12:20:32;;;;;;;;;;;6.20;99.90;;;;;;5049309;28;19915;-82
2021/12/13 12:22:59;;;;;;;;;;;6.40;99.90;;;;;;5054834;28;19908;-82
2021/12/13 12:25:26;;;;;;;;;;;6.30;99.90;;;;;;5037128;28;19940;-82
2021/12/13 12:28:06;;;;;;;;;;;6.10;99.90;;;;;;5053686;28;19947;-82
2021/12/13 12:30:35;;;;;;;;;;;6.10;99.90;;;;;;5052811;28;20004;-82
2021/12/13 12:33:06;;;;;;;;;;;6.30;99.90;;;;;;5053457;28;19916;-82
2021/12/13 12:35:38;;;;;;;;;;;6.50;99.90;;;;;;5037264;28;19970;-82
2021/12/13 12:38:15;;;;;;;;;;;6.40;99.90;;;;;;5035248;28;19943;-82
2021/12/13 12:41:18;;;;;;;;;;;6.30;99.90;;;;;;5041214;28;19916;-86
2021/12/13 12:43:51;;;;;;;;;;;6.90;99.90;;;;;;5032777;28;19909;-85
2021/12/13 12:46:19;;;;;;;;;;;6.70;99.90;;;;;;5050778;28;20426;-86
2021/12/13 12:48:49;;;;;;;;;;;6.90;99.90;;;;;;5049472;28;19917;-87
2021/12/13 12:51:26;;;;;;;;;;;6.30;99.90;;;;;;5051017;28;19962;-86
2021/12/13 12:53:52;;;;;;;;;;;6.10;99.90;;;;;;5054840;28;19912;-86
2021/12/13 12:56:26;;;;;;;;;;;5.80;99.90;;;;;;5037160;28;19916;-87
2021/12/13 12:59:10;;;;;;;;;;;6.00;99.90;;;;;;5047664;28;20287;-80
2021/12/13 13:01:44;;;;;;;;;;;5.50;99.90;;;;;;5046718;28;19935;-82
2021/12/13 13:04:27;;;;;;;;;;;5.80;99.90;;;;;;5054238;28;19916;-81
2021/12/13 13:06:58;;;;;;;;;;;6.00;99.90;;;;;;5055241;28;20015;-81
2021/12/13 13:09:33;;;;;;;;;;;5.90;99.90;;;;;;5056281;28;19913;-79
2021/12/13 13:11:58;;;;;;;;;;;5.80;99.90;;;;;;5071269;28;19908;-81
2021/12/13 13:14:30;;;;;;;;;;;6.00;99.90;;;;;;5053972;28;19919;-82
2021/12/13 13:17:00;;;;;;;;;;;5.60;99.90;;;;;;5054048;28;20386;-81
2021/12/13 13:19:34;;;;;;;;;;;5.50;99.90;;;;;;5054378;28;19913;-81
2021/12/13 13:22:09;;;;;;;;;;;5.20;99.90;;;;;;5036351;28;19912;-81
2021/12/13 13:24:39;;;;;;;;;;;5.40;99.90;;;;;;5053649;28;20368;-82
2021/12/13 13:27:05;;;;;;;;;;;5.60;99.90;;;;;;5036549;28;19961;-88
2021/12/13 13:29:32;;;;;;;;;;;5.60;99.90;;;;;;5055147;28;19913;-89
2021/12/13 13:32:00;;;;;;;;;;;5.80;99.90;;;;;;5053253;28;19920;-89
2021/12/13 13:34:31;;;;;;;;;;;5.60;99.90;;;;;;5054160;28;19913;-88
2021/12/13 13:37:01;;;;;;;;;;;5.40;99.90;;;;;;5053845;28;20293;-89
2021/12/13 13:39:30;;;;;;;;;;;5.40;99.90;;;;;;5052308;28;19927;-89
2021/12/13 13:42:03;;;;;;;;;;;5.10;99.90;;;;;;5049304;28;19912;-89
2021/12/13 13:44:29;;;;;;;;;;;5.10;99.90;;;;;;5051917;28;19996;-89
2021/12/13 13:46:59;;;;;;;;;;;5.20;99.90;;;;;;5035994;28;20006;-88
2021/12/13 13:49:24;;;;;;;;;;;5.10;99.90;;;;;;5034924;28;19912;-89
2021/12/13 13:51:50;;;;;;;;;;;5.20;99.90;;;;;;5050076;28;20444;-89
2021/12/13 13:54:15;;;;;;;;;;;5.40;99.90;;;;;;5053885;28;20327;-88
2021/12/13 13:56:44;;;;;;;;;;;5.50;99.90;;;;;;5035264;28;19916;-87
2021/12/13 13:59:12;;;;;;;;;;;5.20;99.90;;;;;;5049333;28;19924;-89
2021/12/13 14:01:43;;;;;;;;;;;5.30;99.90;;;;;;5052433;28;19913;-89
2021/12/13 14:04:23;;;;;;;;;;;5.10;99.90;;;;;;5053693;28;20011;-89
2021/12/13 14:06:50;;;;;;;;;;;5.00;99.90;;;;;;5049524;28;19913;-89
2021/12/13 14:09:18;;;;;;;;;;;5.20;99.90;;;;;;5049876;28;19912;-88
2021/12/13 14:11:46;;;;;;;;;;;5.20;99.90;;;;;;5054424;28;19958;-88
2021/12/13 14:14:12;;;;;;;;;;;4.90;99.90;;;;;;5030913;28;20388;-89
2021/12/13 14:16:42;;;;;;;;;;;4.90;99.90;;;;;;5049182;28;19913;-89
2021/12/13 14:19:11;;;;;;;;;;;4.80;99.90;;;;;;5055580;28;19908;-89
2021/12/13 14:21:42;;;;;;;;;;;5.00;99.90;;;;;;5054529;28;19909;-89
2021/12/13 14:24:09;;;;;;;;;;;4.90;99.90;;;;;;5055390;28;19909;-88
2021/12/13 14:26:35;;;;;;;;;;;4.60;99.90;;;;;;5055754;28;19908;-89
2021/12/13 14:29:03;;;;;;;;;;;4.50;99.90;;;;;;5037445;28;20338;-87
2021/12/13 14:31:41;;;;;;;;;;;4.50;99.90;;;;;;5054439;28;19920;-88
2021/12/13 14:34:16;;;;;;;;;;;4.40;99.90;;;;;;5055334;28;19913;-88
2021/12/13 14:36:56;;;;;;;;;;;4.60;99.90;;;;;;5050685;28;19931;-86
2021/12/13 14:39:27;;;;;;;;;;;4.40;99.90;;;;;;5046404;28;19935;-88
2021/12/13 14:42:01;;;;;;;;;;;4.50;99.90;;;;;;5047099;28;20291;-87
2021/12/13 14:44:31;;;;;;;;;;;4.50;99.90;;;;;;5036399;28;19913;-87
2021/12/13 14:47:04;;;;;;;;;;;4.30;99.90;;;;;;5036430;28;19955;-87
2021/12/13 14:49:31;;;;;;;;;;;4.50;99.90;;;;;;5055077;28;19919;-86
2021/12/13 14:52:08;;;;;;;;;;;4.20;99.90;;;;;;5031717;28;19913;-82
2021/12/13 14:54:35;;;;;;;;;;;4.10;99.90;;;;;;5052992;28;20396;-87
2021/12/13 14:57:04;;;;;;;;;;;4.10;99.90;;;;;;5054169;28;19930;-85
2021/12/13 14:59:31;;;;;;;;;;;4.20;99.90;;;;;;5050054;28;19913;-85
2021/12/13 15:01:57;;;;;;;;;;;4.20;99.90;;;;;;5029128;28;20380;-86